Time;durP1;ratioP1;P1;durP2;ratioP2;P2;SDS_P1;SDS_P2;PMS_P1;PMS_P2;Temp;Humidity;BMP_temperature;BMP_pressure;BME280_temperature;BME280_humidity;BME280_pressure;Samples;Min_cycle;Max_cycle;Signal;HPM_P1;HPM_P2
2022/04/13 00:02:05;;;;;;;243.57;152.90;;;;;;;;;;5013996;28;20536;-61
2022/04/13 00:04:31;;;;;;;242.10;153.33;;;;;;;;;;5014280;28;20768;-61
2022/04/13 00:06:57;;;;;;;237.43;152.00;;;;;;;;;;5014121;28;20450;-62
2022/04/13 00:09:23;;;;;;;244.25;152.18;;;;;;;;;;5013792;28;20428;-61
2022/04/13 00:11:51;;;;;;;237.77;150.33;;;;;;;;;;5013794;28;20225;-61
2022/04/13 00:14:17;;;;;;;244.73;154.65;;;;;;;;;;5014058;28;20404;-61
2022/04/13 00:16:43;;;;;;;242.23;152.33;;;;;;;;;;5013979;28;20182;-61
2022/04/13 00:19:09;;;;;;;248.77;156.03;;;;;;;;;;5013860;28;20919;-61
2022/04/13 00:21:35;;;;;;;245.10;153.90;;;;;;;;;;5013639;28;20480;-63
2022/04/13 00:24:01;;;;;;;246.07;153.83;;;;;;;;;;5013843;28;20746;-61
2022/04/13 00:26:27;;;;;;;248.87;154.27;;;;;;;;;;5013839;28;20558;-61
2022/04/13 00:28:53;;;;;;;244.70;153.97;;;;;;;;;;5013501;28;20477;-61
2022/04/13 00:31:19;;;;;;;244.80;153.10;;;;;;;;;;5013146;28;20547;-61
2022/04/13 00:33:45;;;;;;;246.07;152.63;;;;;;;;;;5013683;28;20439;-61
2022/04/13 00:36:11;;;;;;;241.23;149.83;;;;;;;;;;5013707;28;20418;-61
2022/04/13 00:38:37;;;;;;;244.97;151.63;;;;;;;;;;5013357;28;20444;-61
2022/04/13 00:41:03;;;;;;;239.47;148.43;;;;;;;;;;5013193;28;20421;-60
2022/04/13 00:43:29;;;;;;;235.67;148.80;;;;;;;;;;5013459;28;20423;-61
2022/04/13 00:45:54;;;;;;;234.83;149.77;;;;;;;;;;5013439;28;20416;-61
2022/04/13 00:48:42;;;;;;;238.07;147.60;;;;;;;;;;5013227;28;20464;-61
2022/04/13 00:51:08;;;;;;;244.02;149.40;;;;;;;;;;5012134;28;20451;-61
2022/04/13 00:53:35;;;;;;;242.05;154.10;;;;;;;;;;5013286;28;20227;-61
2022/04/13 00:56:01;;;;;;;232.10;152.02;;;;;;;;;;5013283;28;20224;-61
2022/04/13 00:58:28;;;;;;;236.70;151.63;;;;;;;;;;5013263;28;20177;-61
2022/04/13 01:00:55;;;;;;;218.02;140.65;;;;;;;;;;5012084;28;20634;-61
2022/04/13 01:03:22;;;;;;;238.07;150.13;;;;;;;;;;5013087;28;20237;-61
2022/04/13 01:05:49;;;;;;;230.20;150.70;;;;;;;;;;5013130;28;20716;-60
2022/04/13 01:08:17;;;;;;;229.63;148.13;;;;;;;;;;5012974;28;20205;-61
2022/04/13 01:10:43;;;;;;;227.10;146.00;;;;;;;;;;5012724;28;20642;-61
2022/04/13 01:13:10;;;;;;;232.30;147.45;;;;;;;;;;5012977;28;20178;-61
2022/04/13 01:15:36;;;;;;;232.35;146.00;;;;;;;;;;5012905;28;20664;-61
2022/04/13 01:18:02;;;;;;;226.88;143.90;;;;;;;;;;5012789;28;20202;-61
2022/04/13 01:20:28;;;;;;;226.45;145.25;;;;;;;;;;5012461;28;20206;-61
2022/04/13 01:22:54;;;;;;;219.73;140.57;;;;;;;;;;5012818;28;20280;-61
2022/04/13 01:25:20;;;;;;;223.87;144.17;;;;;;;;;;5012745;28;20475;-60
2022/04/13 01:27:46;;;;;;;224.05;137.40;;;;;;;;;;5012667;28;20449;-60
2022/04/13 01:30:13;;;;;;;221.17;140.43;;;;;;;;;;5012352;28;20212;-61
2022/04/13 01:32:39;;;;;;;227.30;145.63;;;;;;;;;;5012415;28;20416;-61
2022/04/13 01:35:06;;;;;;;224.57;142.73;;;;;;;;;;5012574;28;20180;-60
2022/04/13 01:37:32;;;;;;;229.40;145.82;;;;;;;;;;5012501;28;20642;-60
2022/04/13 01:39:58;;;;;;;219.47;141.73;;;;;;;;;;5012847;28;20296;-61
2022/04/13 01:42:24;;;;;;;221.25;139.38;;;;;;;;;;5012284;28;20508;-61
2022/04/13 01:44:50;;;;;;;221.20;141.63;;;;;;;;;;5012410;28;20236;-61
2022/04/13 01:47:16;;;;;;;227.87;144.57;;;;;;;;;;5012256;28;20804;-59
2022/04/13 01:49:43;;;;;;;225.73;143.40;;;;;;;;;;5012348;28;20466;-60
2022/04/13 01:52:09;;;;;;;222.38;139.00;;;;;;;;;;5012224;28;20188;-61
2022/04/13 01:54:35;;;;;;;218.38;137.23;;;;;;;;;;5011890;28;20166;-60
2022/04/13 01:57:02;;;;;;;208.23;135.27;;;;;;;;;;5012324;28;20190;-61
2022/04/13 01:59:28;;;;;;;216.35;133.75;;;;;;;;;;5011581;28;20199;-60
2022/04/13 02:01:54;;;;;;;220.52;137.93;;;;;;;;;;5011750;28;20186;-61
2022/04/13 02:04:21;;;;;;;221.27;136.83;;;;;;;;;;5012031;28;20693;-60
2022/04/13 02:06:47;;;;;;;218.43;132.27;;;;;;;;;;5011964;28;20412;-61
2022/04/13 02:09:14;;;;;;;229.30;140.73;;;;;;;;;;5011756;28;20192;-60
2022/04/13 02:11:40;;;;;;;229.60;135.32;;;;;;;;;;5011716;28;20252;-61
2022/04/13 02:14:06;;;;;;;222.17;130.53;;;;;;;;;;5011769;28;20253;-60
2022/04/13 02:16:32;;;;;;;230.23;134.85;;;;;;;;;;5011882;28;20962;-61
2022/04/13 02:18:58;;;;;;;236.17;135.53;;;;;;;;;;5011755;28;20288;-61
2022/04/13 02:21:24;;;;;;;233.17;136.87;;;;;;;;;;5011695;28;20416;-60
2022/04/13 02:23:50;;;;;;;227.37;134.13;;;;;;;;;;5011833;28;20429;-61
2022/04/13 02:26:17;;;;;;;230.70;135.07;;;;;;;;;;5011779;28;20443;-61
2022/04/13 02:28:43;;;;;;;223.98;136.25;;;;;;;;;;5011742;28;20479;-61
2022/04/13 02:31:09;;;;;;;207.13;133.33;;;;;;;;;;5011479;28;20182;-61
2022/04/13 02:33:35;;;;;;;212.00;131.43;;;;;;;;;;5011878;28;20415;-61
2022/04/13 02:36:00;;;;;;;216.07;129.27;;;;;;;;;;5011750;28;20536;-61
2022/04/13 02:38:26;;;;;;;208.67;130.70;;;;;;;;;;5011675;28;20412;-61
2022/04/13 02:40:52;;;;;;;217.90;131.57;;;;;;;;;;5011376;28;20434;-61
2022/04/13 02:43:18;;;;;;;213.40;130.67;;;;;;;;;;5011597;28;20471;-60
2022/04/13 02:45:44;;;;;;;220.00;125.13;;;;;;;;;;5011593;28;20440;-61
2022/04/13 02:48:10;;;;;;;218.07;127.77;;;;;;;;;;5011351;28;20960;-60
2022/04/13 02:50:37;;;;;;;221.13;128.40;;;;;;;;;;5011061;28;20408;-61
2022/04/13 02:53:03;;;;;;;228.23;131.02;;;;;;;;;;5011526;28;20404;-61
2022/04/13 02:55:29;;;;;;;196.68;129.50;;;;;;;;;;5011591;28;20186;-60
2022/04/13 02:57:55;;;;;;;185.50;130.93;;;;;;;;;;5011498;28;20181;-59
2022/04/13 03:00:22;;;;;;;193.17;133.37;;;;;;;;;;5010953;28;20640;-61
2022/04/13 03:02:48;;;;;;;210.63;128.85;;;;;;;;;;5011435;28;20831;-60
2022/04/13 03:05:14;;;;;;;226.37;130.73;;;;;;;;;;5011444;28;20193;-60
2022/04/13 03:07:40;;;;;;;213.33;124.43;;;;;;;;;;5011336;28;20457;-61
2022/04/13 03:10:07;;;;;;;209.35;126.90;;;;;;;;;;5011105;28;20436;-61
2022/04/13 03:12:36;;;;;;;204.90;123.97;;;;;;;;;;5011402;28;20228;-61
2022/04/13 03:15:05;;;;;;;207.93;128.57;;;;;;;;;;5011263;28;20165;-61
2022/04/13 03:17:31;;;;;;;168.25;124.90;;;;;;;;;;5011334;28;20178;-59
2022/04/13 03:19:57;;;;;;;162.10;127.45;;;;;;;;;;5010881;28;20237;-60
2022/04/13 03:22:23;;;;;;;156.27;122.80;;;;;;;;;;5011042;28;20212;-60
2022/04/13 03:24:51;;;;;;;163.75;126.88;;;;;;;;;;5012627;28;20851;-60
2022/04/13 03:27:17;;;;;;;169.02;124.40;;;;;;;;;;5014876;28;20193;-61
2022/04/13 03:29:42;;;;;;;166.27;120.97;;;;;;;;;;5014778;28;20193;-60
2022/04/13 03:32:09;;;;;;;199.20;124.47;;;;;;;;;;5014691;28;20396;-60
2022/04/13 03:34:35;;;;;;;199.52;124.07;;;;;;;;;;5014907;28;20807;-60
2022/04/13 03:37:01;;;;;;;203.32;124.78;;;;;;;;;;5014812;28;20250;-60
2022/04/13 03:39:27;;;;;;;185.35;120.78;;;;;;;;;;5014282;28;20237;-61
2022/04/13 03:41:53;;;;;;;203.80;127.30;;;;;;;;;;5014280;28;20177;-61
2022/04/13 03:44:19;;;;;;;198.00;116.33;;;;;;;;;;5014649;28;20166;-60
2022/04/13 03:46:45;;;;;;;201.80;122.60;;;;;;;;;;5014643;28;20408;-61
2022/04/13 03:49:11;;;;;;;200.60;123.05;;;;;;;;;;5014331;28;20204;-59
2022/04/13 03:51:37;;;;;;;202.40;119.82;;;;;;;;;;5014160;28;20185;-61
2022/04/13 03:54:04;;;;;;;193.65;118.68;;;;;;;;;;5014402;28;20170;-60
2022/04/13 03:56:30;;;;;;;194.18;118.20;;;;;;;;;;5014296;28;20188;-61
2022/04/13 03:58:57;;;;;;;191.38;120.00;;;;;;;;;;5014265;28;20201;-61
2022/04/13 04:01:23;;;;;;;192.57;121.18;;;;;;;;;;5014123;28;20208;-61
2022/04/13 04:03:49;;;;;;;171.50;116.97;;;;;;;;;;5014366;28;20633;-61
2022/04/13 04:06:15;;;;;;;166.40;113.23;;;;;;;;;;5014270;28;20744;-61
2022/04/13 04:08:41;;;;;;;161.45;114.53;;;;;;;;;;5014133;28;20464;-60
2022/04/13 04:11:07;;;;;;;172.37;113.63;;;;;;;;;;5013799;28;20711;-61
2022/04/13 04:13:33;;;;;;;168.40;113.60;;;;;;;;;;5014182;28;20400;-61
2022/04/13 04:16:00;;;;;;;167.83;112.53;;;;;;;;;;5013966;28;20483;-59
2022/04/13 04:18:26;;;;;;;171.02;116.43;;;;;;;;;;5014014;28;20427;-61
2022/04/13 04:20:51;;;;;;;169.17;114.83;;;;;;;;;;5013516;28;20173;-61
2022/04/13 04:23:18;;;;;;;168.00;117.77;;;;;;;;;;5013828;28;20441;-61
2022/04/13 04:25:44;;;;;;;177.07;115.85;;;;;;;;;;5013770;28;20412;-60
2022/04/13 04:28:10;;;;;;;178.10;118.50;;;;;;;;;;5013621;28;20205;-59
2022/04/13 04:30:37;;;;;;;175.73;117.97;;;;;;;;;;5013583;28;20448;-60
2022/04/13 04:33:03;;;;;;;181.95;115.82;;;;;;;;;;5013714;28;20177;-59
2022/04/13 04:35:29;;;;;;;176.80;113.40;;;;;;;;;;5013025;28;20181;-61
2022/04/13 04:37:55;;;;;;;200.70;119.83;;;;;;;;;;5013042;28;20409;-60
2022/04/13 04:40:21;;;;;;;174.33;119.97;;;;;;;;;;5013074;28;20456;-60
2022/04/13 04:42:47;;;;;;;192.87;116.63;;;;;;;;;;5013527;28;20412;-61
2022/04/13 04:45:16;;;;;;;199.80;117.72;;;;;;;;;;5013414;28;20423;-61
2022/04/13 04:47:43;;;;;;;209.23;120.40;;;;;;;;;;5013391;28;20197;-60
2022/04/13 04:50:10;;;;;;;214.90;122.68;;;;;;;;;;5013008;28;20260;-60
2022/04/13 04:52:39;;;;;;;206.73;119.05;;;;;;;;;;5013240;28;20648;-61
2022/04/13 04:55:06;;;;;;;210.63;120.00;;;;;;;;;;5013381;28;20170;-61
2022/04/13 04:57:31;;;;;;;202.23;115.25;;;;;;;;;;5013409;28;20173;-59
2022/04/13 04:59:57;;;;;;;210.93;119.83;;;;;;;;;;5013104;28;20744;-61
2022/04/13 05:02:23;;;;;;;208.00;118.63;;;;;;;;;;5012888;28;20448;-60
2022/04/13 05:04:49;;;;;;;214.33;121.77;;;;;;;;;;5013085;28;20413;-60
2022/04/13 05:07:15;;;;;;;217.20;121.40;;;;;;;;;;5012869;28;20460;-58
2022/04/13 05:09:41;;;;;;;220.07;119.97;;;;;;;;;;5012903;28;20424;-59
2022/04/13 05:12:07;;;;;;;223.43;119.60;;;;;;;;;;5012823;28;20400;-60
2022/04/13 05:14:33;;;;;;;215.13;117.32;;;;;;;;;;5012713;28;20401;-56
2022/04/13 05:16:59;;;;;;;220.57;119.37;;;;;;;;;;5012740;28;20557;-60
2022/04/13 05:19:25;;;;;;;227.40;122.10;;;;;;;;;;5012738;28;20947;-60
2022/04/13 05:21:51;;;;;;;231.30;125.77;;;;;;;;;;4994604;28;20512;-60
2022/04/13 05:24:17;;;;;;;231.97;124.47;;;;;;;;;;4992965;28;20429;-60
2022/04/13 05:26:43;;;;;;;227.10;117.03;;;;;;;;;;4993194;28;20751;-59
2022/04/13 05:29:09;;;;;;;229.70;121.73;;;;;;;;;;4992714;28;20220;-60
2022/04/13 05:31:35;;;;;;;235.82;125.53;;;;;;;;;;4992518;28;20480;-60
2022/04/13 05:34:01;;;;;;;235.63;127.17;;;;;;;;;;4992520;28;20303;-60
2022/04/13 05:36:28;;;;;;;240.93;136.70;;;;;;;;;;4992524;28;20908;-60
2022/04/13 05:38:54;;;;;;;240.80;128.45;;;;;;;;;;4992197;28;20868;-61
2022/04/13 05:41:20;;;;;;;228.67;129.93;;;;;;;;;;4992325;28;20178;-61
2022/04/13 05:43:45;;;;;;;240.17;128.17;;;;;;;;;;4992550;28;20406;-61
2022/04/13 05:46:11;;;;;;;251.97;134.23;;;;;;;;;;4992189;28;20974;-61
2022/04/13 05:48:37;;;;;;;202.30;130.60;;;;;;;;;;4992134;28;20984;-60
2022/04/13 05:51:03;;;;;;;246.23;135.00;;;;;;;;;;4992043;28;20398;-61
2022/04/13 05:53:29;;;;;;;237.03;135.73;;;;;;;;;;4991205;28;20397;-61
2022/04/13 05:55:58;;;;;;;243.63;130.40;;;;;;;;;;4992066;28;20406;-60
2022/04/13 05:58:25;;;;;;;239.15;137.60;;;;;;;;;;4992863;28;20405;-60
2022/04/13 06:00:51;;;;;;;241.60;129.75;;;;;;;;;;4992291;28;20546;-60
2022/04/13 06:03:20;;;;;;;246.13;136.37;;;;;;;;;;4991863;28;20185;-60
2022/04/13 06:05:47;;;;;;;196.55;133.15;;;;;;;;;;4992350;28;20409;-60
2022/04/13 06:08:13;;;;;;;249.93;139.45;;;;;;;;;;4992173;28;20285;-60
2022/04/13 06:10:39;;;;;;;244.82;140.63;;;;;;;;;;4992103;28;20261;-60
2022/04/13 06:13:05;;;;;;;255.00;141.93;;;;;;;;;;4994638;28;20934;-61
2022/04/13 06:15:31;;;;;;;256.40;144.63;;;;;;;;;;5009065;28;20412;-60
2022/04/13 06:17:57;;;;;;;258.40;148.20;;;;;;;;;;5009724;28;20236;-60
2022/04/13 06:20:23;;;;;;;261.70;150.68;;;;;;;;;;4994479;28;20205;-60
2022/04/13 06:22:49;;;;;;;256.30;146.75;;;;;;;;;;4992225;28;20185;-60
2022/04/13 06:25:15;;;;;;;264.58;150.85;;;;;;;;;;4992316;28;20180;-60
2022/04/13 06:27:42;;;;;;;260.47;154.23;;;;;;;;;;4992193;28;20731;-60
2022/04/13 06:30:09;;;;;;;264.42;152.38;;;;;;;;;;4991781;28;20429;-60
2022/04/13 06:32:36;;;;;;;260.70;155.10;;;;;;;;;;4991761;28;20635;-60
2022/04/13 06:35:03;;;;;;;244.02;160.35;;;;;;;;;;4992299;28;20213;-60
2022/04/13 06:37:29;;;;;;;244.35;159.13;;;;;;;;;;4991779;28;20265;-60
2022/04/13 06:39:55;;;;;;;250.60;164.30;;;;;;;;;;4991878;28;20236;-60
2022/04/13 06:42:22;;;;;;;271.95;168.88;;;;;;;;;;4991870;28;20180;-61
2022/04/13 06:44:51;;;;;;;280.17;175.75;;;;;;;;;;4991995;28;20177;-60
2022/04/13 06:47:18;;;;;;;277.92;176.48;;;;;;;;;;4992117;28;20625;-60
2022/04/13 06:49:44;;;;;;;282.25;183.70;;;;;;;;;;4991981;28;20200;-59
2022/04/13 06:52:10;;;;;;;283.17;187.80;;;;;;;;;;4991789;28;20518;-60
2022/04/13 06:54:36;;;;;;;286.33;190.17;;;;;;;;;;4992105;28;20179;-60
2022/04/13 06:57:02;;;;;;;293.97;193.57;;;;;;;;;;4997450;28;20793;-59
2022/04/13 06:59:28;;;;;;;279.03;193.63;;;;;;;;;;5023429;28;20938;-59
2022/04/13 07:01:54;;;;;;;298.83;196.27;;;;;;;;;;5034873;28;20461;-59
2022/04/13 07:04:20;;;;;;;302.47;190.37;;;;;;;;;;5034973;28;20413;-60
2022/04/13 07:06:46;;;;;;;309.47;212.10;;;;;;;;;;5035214;28;20414;-59
2022/04/13 07:09:11;;;;;;;303.07;215.37;;;;;;;;;;5019469;28;20610;-60
2022/04/13 07:11:37;;;;;;;298.67;203.00;;;;;;;;;;5009612;28;20430;-60
2022/04/13 07:14:03;;;;;;;307.57;231.60;;;;;;;;;;5014348;28;20491;-61
2022/04/13 07:16:29;;;;;;;313.73;217.43;;;;;;;;;;5015006;28;20872;-58
2022/04/13 07:18:55;;;;;;;325.77;229.53;;;;;;;;;;5015209;28;20448;-60
2022/04/13 07:21:21;;;;;;;328.47;239.50;;;;;;;;;;5029977;28;20447;-60
2022/04/13 07:23:47;;;;;;;334.87;259.77;;;;;;;;;;5013242;28;20474;-61
2022/04/13 07:26:13;;;;;;;332.73;242.57;;;;;;;;;;5014421;28;20436;-60
2022/04/13 07:28:39;;;;;;;327.33;236.50;;;;;;;;;;5014575;28;20459;-61
2022/04/13 07:31:05;;;;;;;331.20;254.30;;;;;;;;;;5014566;28;20407;-59
2022/04/13 07:33:31;;;;;;;335.17;258.03;;;;;;;;;;5014611;28;20400;-59
2022/04/13 07:35:58;;;;;;;346.50;266.80;;;;;;;;;;5013692;28;20440;-61
2022/04/13 07:38:24;;;;;;;348.67;278.57;;;;;;;;;;5013500;28;20193;-61
2022/04/13 07:40:50;;;;;;;349.90;282.60;;;;;;;;;;5012089;28;20510;-61
2022/04/13 07:43:16;;;;;;;357.80;296.03;;;;;;;;;;5013261;28;20514;-61
2022/04/13 07:45:43;;;;;;;364.33;309.13;;;;;;;;;;5014439;28;20428;-61
2022/04/13 07:48:09;;;;;;;360.80;309.23;;;;;;;;;;5010719;28;20264;-61
2022/04/13 07:50:35;;;;;;;368.17;325.97;;;;;;;;;;5004177;28;20486;-61
2022/04/13 07:53:01;;;;;;;372.87;333.17;;;;;;;;;;5009286;28;20409;-60
2022/04/13 07:55:27;;;;;;;374.10;327.73;;;;;;;;;;5035122;23;21038;-64
2022/04/13 07:57:53;;;;;;;397.47;355.07;;;;;;;;;;5013224;28;20426;-62
2022/04/13 08:00:19;;;;;;;428.87;384.90;;;;;;;;;;5013744;28;20415;-63
2022/04/13 08:02:45;;;;;;;440.23;398.97;;;;;;;;;;5013707;28;20408;-65
2022/04/13 08:05:12;;;;;;;458.10;415.50;;;;;;;;;;5013375;28;20482;-62
2022/04/13 08:07:38;;;;;;;467.23;423.27;;;;;;;;;;5013827;28;20951;-65
2022/04/13 08:10:04;;;;;;;489.00;445.03;;;;;;;;;;5012975;28;20413;-63
2022/04/13 08:12:31;;;;;;;491.13;447.10;;;;;;;;;;5013887;28;20474;-63
2022/04/13 08:14:57;;;;;;;514.40;472.50;;;;;;;;;;5013853;28;20432;-61
2022/04/13 08:17:24;;;;;;;542.47;496.83;;;;;;;;;;5013631;28;20542;-62
2022/04/13 08:19:50;;;;;;;537.83;492.80;;;;;;;;;;5014008;28;21036;-63
2022/04/13 08:22:17;;;;;;;559.17;513.07;;;;;;;;;;5013011;28;20497;-63
2022/04/13 08:24:43;;;;;;;604.80;557.23;;;;;;;;;;5013619;28;20443;-63
2022/04/13 08:27:10;;;;;;;662.43;614.17;;;;;;;;;;5013601;28;20417;-62
2022/04/13 08:29:36;;;;;;;708.77;658.37;;;;;;;;;;5012253;28;20930;-63
2022/04/13 08:32:03;;;;;;;738.37;686.83;;;;;;;;;;5013343;28;20412;-63
2022/04/13 08:34:29;;;;;;;759.07;706.70;;;;;;;;;;5013632;28;20413;-63
2022/04/13 08:36:55;;;;;;;758.67;706.50;;;;;;;;;;5013556;28;20404;-64
2022/04/13 08:39:21;;;;;;;789.23;735.00;;;;;;;;;;5013345;28;20486;-62
2022/04/13 08:41:51;;;;;;;781.23;727.60;;;;;;;;;;5012162;28;20455;-64
2022/04/13 08:44:29;;;;;;;786.63;733.40;;;;;;;;;;5002324;28;20475;-63
2022/04/13 08:46:57;;;;;;;801.63;747.37;;;;;;;;;;5002122;28;20421;-62
2022/04/13 08:49:24;;;;;;;819.33;764.40;;;;;;;;;;5001043;28;20415;-64
2022/04/13 08:51:51;;;;;;;843.40;787.30;;;;;;;;;;5002848;28;20445;-65
2022/04/13 08:54:21;;;;;;;850.83;793.77;;;;;;;;;;5001111;28;21008;-63
2022/04/13 08:56:50;;;;;;;869.90;812.50;;;;;;;;;;5001089;28;20527;-64
2022/04/13 08:59:36;;;;;;;881.80;823.13;;;;;;;;;;5001371;28;20919;-64
2022/04/13 09:02:17;;;;;;;859.80;802.37;;;;;;;;;;5001128;28;20891;-64
2022/04/13 09:04:45;;;;;;;881.67;824.57;;;;;;;;;;5001258;28;20798;-64
2022/04/13 09:07:12;;;;;;;896.60;838.40;;;;;;;;;;5001110;28;20417;-63
2022/04/13 09:09:43;;;;;;;905.93;847.33;;;;;;;;;;5001061;28;21127;-63
2022/04/13 09:12:10;;;;;;;894.87;836.47;;;;;;;;;;5010014;28;21067;-64
2022/04/13 09:14:37;;;;;;;895.77;837.87;;;;;;;;;;5005822;28;20426;-63
2022/04/13 09:17:05;;;;;;;882.87;825.67;;;;;;;;;;5003077;28;20412;-63
2022/04/13 09:19:31;;;;;;;877.40;820.10;;;;;;;;;;5000526;28;21209;-64
2022/04/13 09:21:59;;;;;;;886.23;827.93;;;;;;;;;;5001202;28;20418;-63
2022/04/13 09:24:25;;;;;;;914.33;854.27;;;;;;;;;;5000460;28;20894;-65
2022/04/13 09:26:51;;;;;;;942.13;880.90;;;;;;;;;;5001807;28;20881;-64
2022/04/13 09:29:18;;;;;;;953.10;891.87;;;;;;;;;;5001985;28;20460;-64
2022/04/13 09:31:44;;;;;;;948.10;886.40;;;;;;;;;;5000131;28;20445;-64
2022/04/13 09:34:10;;;;;;;948.03;886.90;;;;;;;;;;5002025;28;20436;-63
2022/04/13 09:36:36;;;;;;;937.23;876.43;;;;;;;;;;5001312;28;20461;-62
2022/04/13 09:39:02;;;;;;;950.50;889.03;;;;;;;;;;5000404;28;20559;-62
2022/04/13 09:41:35;;;;;;;936.27;875.57;;;;;;;;;;5008790;28;20499;-62
2022/04/13 09:44:01;;;;;;;941.10;879.70;;;;;;;;;;5010262;28;20440;-64
2022/04/13 09:46:28;;;;;;;930.63;869.53;;;;;;;;;;5012104;28;20534;-63
2022/04/13 09:49:10;;;;;;;928.80;868.00;;;;;;;;;;5011608;28;20928;-65
2022/04/13 09:51:37;;;;;;;916.83;856.40;;;;;;;;;;5009817;28;20461;-65
2022/04/13 09:54:07;;;;;;;919.70;859.00;;;;;;;;;;5000934;28;20409;-63
2022/04/13 09:56:33;;;;;;;914.83;854.67;;;;;;;;;;4999626;28;20812;-64
2022/04/13 09:58:59;;;;;;;913.03;854.23;;;;;;;;;;5001542;28;20419;-63
2022/04/13 10:01:25;;;;;;;945.30;883.70;;;;;;;;;;5000349;28;20433;-63
2022/04/13 10:03:55;;;;;;;943.80;881.90;;;;;;;;;;4999406;28;20400;-64
2022/04/13 10:06:31;;;;;;;936.90;875.67;;;;;;;;;;5001332;28;20483;-65
2022/04/13 10:09:08;;;;;;;948.73;886.47;;;;;;;;;;5001831;28;20480;-64
2022/04/13 10:11:34;;;;;;;953.07;890.67;;;;;;;;;;5002842;28;20419;-63
2022/04/13 10:14:01;;;;;;;960.27;897.67;;;;;;;;;;4999777;28;20441;-63
2022/04/13 10:16:31;;;;;;;979.03;915.53;;;;;;;;;;5003345;28;20520;-62
2022/04/13 10:18:59;;;;;;;965.23;902.57;;;;;;;;;;5007656;28;20967;-63
2022/04/13 10:21:41;;;;;;;949.50;887.57;;;;;;;;;;5007377;28;20420;-63
2022/04/13 10:24:08;;;;;;;946.03;884.70;;;;;;;;;;4995212;28;20413;-63
2022/04/13 10:26:34;;;;;;;942.57;881.13;;;;;;;;;;4991226;28;20971;-62
2022/04/13 10:29:00;;;;;;;945.93;883.57;;;;;;;;;;4991197;28;20489;-63
2022/04/13 10:31:26;;;;;;;947.23;885.30;;;;;;;;;;4991450;28;20432;-63
2022/04/13 10:33:52;;;;;;;975.17;911.47;;;;;;;;;;4991935;28;20409;-63
2022/04/13 10:36:18;;;;;;;980.57;916.47;;;;;;;;;;5007205;28;20465;-63
2022/04/13 10:38:45;;;;;;;990.87;926.60;;;;;;;;;;5007751;28;20428;-63
2022/04/13 10:41:16;;;;;;;989.50;925.33;;;;;;;;;;5005639;28;20420;-63
2022/04/13 10:43:47;;;;;;;983.43;919.67;;;;;;;;;;4991023;28;20477;-62
2022/04/13 10:46:14;;;;;;;972.90;909.17;;;;;;;;;;4996351;28;20543;-63
2022/04/13 10:48:41;;;;;;;979.03;915.17;;;;;;;;;;5008009;28;20497;-64
2022/04/13 10:51:12;;;;;;;997.23;932.40;;;;;;;;;;5011268;28;20384;-64
2022/04/13 10:53:53;;;;;;;992.67;928.40;;;;;;;;;;5010851;28;20411;-63
2022/04/13 10:56:21;;;;;;;994.23;930.27;;;;;;;;;;5011337;28;20446;-63
2022/04/13 10:58:47;;;;;;;987.93;923.93;;;;;;;;;;5010928;28;20406;-63
2022/04/13 11:01:14;;;;;;;984.87;921.27;;;;;;;;;;5009196;28;20485;-62
2022/04/13 11:03:41;;;;;;;977.03;913.87;;;;;;;;;;5010842;28;20532;-63
2022/04/13 11:06:11;;;;;;;983.00;919.37;;;;;;;;;;5011141;28;20438;-63
2022/04/13 11:08:47;;;;;;;982.67;918.90;;;;;;;;;;5010053;28;20503;-63
2022/04/13 11:11:20;;;;;;;974.30;911.33;;;;;;;;;;5002164;28;20413;-62
2022/04/13 11:13:47;;;;;;;987.83;923.63;;;;;;;;;;5008846;28;20387;-63
2022/04/13 11:16:17;;;;;;;986.70;922.63;;;;;;;;;;5008992;28;20429;-63
2022/04/13 11:18:43;;;;;;;984.70;920.70;;;;;;;;;;5009195;28;20414;-64
2022/04/13 11:21:10;;;;;;;971.77;908.50;;;;;;;;;;5010344;28;20775;-63
2022/04/13 11:23:49;;;;;;;974.83;911.23;;;;;;;;;;5011620;28;20831;-64
2022/04/13 11:26:16;;;;;;;970.20;907.23;;;;;;;;;;5011459;28;20938;-64
2022/04/13 11:28:42;;;;;;;957.83;895.63;;;;;;;;;;5011173;28;20456;-63
2022/04/13 11:31:09;;;;;;;926.93;867.43;;;;;;;;;;5010692;28;20438;-64
2022/04/13 11:33:56;;;;;;;943.37;886.07;;;;;;;;;;5011360;28;20447;-63
2022/04/13 11:36:24;;;;;;;927.50;866.70;;;;;;;;;;5011225;28;20435;-64
2022/04/13 11:38:51;;;;;;;925.50;864.50;;;;;;;;;;5011663;28;20412;-64
2022/04/13 11:41:17;;;;;;;910.23;849.67;;;;;;;;;;5011610;28;20419;-63
2022/04/13 11:43:43;;;;;;;919.63;858.47;;;;;;;;;;5011803;28;20404;-64
2022/04/13 11:46:29;;;;;;;911.67;851.17;;;;;;;;;;5013143;28;20502;-64
2022/04/13 11:48:55;;;;;;;924.83;864.53;;;;;;;;;;5014767;28;20974;-64
2022/04/13 11:51:29;;;;;;;917.67;857.20;;;;;;;;;;5014601;28;20414;-64
2022/04/13 11:53:55;;;;;;;911.73;852.77;;;;;;;;;;5014713;28;20408;-64
2022/04/13 11:56:55;;;;;;;908.70;852.63;;;;;;;;;;5014315;28;20464;-64
2022/04/13 11:59:39;;;;;;;879.33;820.77;;;;;;;;;;5013387;28;20792;-63
2022/04/13 12:02:08;;;;;;;891.40;833.53;;;;;;;;;;5014388;28;20409;-63
2022/04/13 12:04:34;;;;;;;864.20;805.53;;;;;;;;;;5014528;28;20439;-62
2022/04/13 12:07:01;;;;;;;873.90;815.03;;;;;;;;;;5012367;28;20430;-61
2022/04/13 12:09:28;;;;;;;844.20;787.93;;;;;;;;;;5010801;28;20470;-63
2022/04/13 12:11:55;;;;;;;831.53;774.47;;;;;;;;;;5014273;28;20409;-63
2022/04/13 12:14:29;;;;;;;836.97;780.40;;;;;;;;;;5014557;28;20850;-62
2022/04/13 12:16:59;;;;;;;814.00;757.67;;;;;;;;;;5013988;28;20417;-63
2022/04/13 12:19:25;;;;;;;793.70;737.90;;;;;;;;;;5013251;28;20559;-62
2022/04/13 12:21:51;;;;;;;803.97;747.53;;;;;;;;;;5013673;28;20482;-64
2022/04/13 12:24:17;;;;;;;776.83;721.77;;;;;;;;;;5013968;28;20427;-63
2022/04/13 12:26:47;;;;;;;789.67;733.87;;;;;;;;;;5014231;28;20409;-63
2022/04/13 12:29:13;;;;;;;752.23;697.43;;;;;;;;;;5013781;28;20827;-63
2022/04/13 12:31:46;;;;;;;760.57;705.77;;;;;;;;;;5013022;28;20417;-64
2022/04/13 12:34:16;;;;;;;777.70;722.60;;;;;;;;;;5013815;28;20412;-63
2022/04/13 12:36:42;;;;;;;775.83;720.63;;;;;;;;;;5004756;28;20421;-63
2022/04/13 12:39:12;;;;;;;751.57;697.00;;;;;;;;;;4994204;28;20476;-64
2022/04/13 12:41:38;;;;;;;758.27;703.40;;;;;;;;;;4993165;28;20431;-62
2022/04/13 12:44:04;;;;;;;748.50;693.23;;;;;;;;;;4993608;28;20507;-63
2022/04/13 12:46:31;;;;;;;729.43;674.97;;;;;;;;;;4994296;28;20433;-63
2022/04/13 12:48:59;;;;;;;739.23;684.33;;;;;;;;;;4993451;28;20465;-63
2022/04/13 12:51:30;;;;;;;729.33;674.87;;;;;;;;;;4993796;28;20417;-63
2022/04/13 12:53:57;;;;;;;713.83;659.90;;;;;;;;;;4994424;28;20967;-62
2022/04/13 12:56:24;;;;;;;725.00;670.87;;;;;;;;;;4993765;28;20495;-64
2022/04/13 12:58:50;;;;;;;736.57;681.47;;;;;;;;;;4993650;28;20418;-63
2022/04/13 13:01:42;;;;;;;717.97;664.00;;;;;;;;;;4993609;28;20416;-64
2022/04/13 13:04:08;;;;;;;718.23;663.93;;;;;;;;;;4992666;28;20483;-64
2022/04/13 13:06:36;;;;;;;730.40;676.43;;;;;;;;;;5003637;28;21013;-63
2022/04/13 13:09:04;;;;;;;736.73;681.57;;;;;;;;;;5013368;28;20448;-64
2022/04/13 13:11:32;;;;;;;738.17;682.77;;;;;;;;;;5012925;28;20413;-63
2022/04/13 13:14:10;;;;;;;715.30;660.50;;;;;;;;;;5013041;28;20471;-62
2022/04/13 13:16:37;;;;;;;722.30;666.63;;;;;;;;;;5012350;28;20931;-63
2022/04/13 13:19:06;;;;;;;736.73;680.43;;;;;;;;;;5012834;28;20409;-64
2022/04/13 13:21:32;;;;;;;726.07;671.87;;;;;;;;;;5012547;28;20419;-64
2022/04/13 13:23:58;;;;;;;736.27;680.43;;;;;;;;;;5012730;28;20779;-63
2022/04/13 13:26:24;;;;;;;710.87;656.87;;;;;;;;;;5013084;28;20944;-63
2022/04/13 13:28:51;;;;;;;721.90;666.77;;;;;;;;;;5012916;28;20465;-63
2022/04/13 13:31:18;;;;;;;727.30;672.40;;;;;;;;;;5012515;28;20408;-62
2022/04/13 13:33:53;;;;;;;707.13;652.73;;;;;;;;;;5012728;28;20416;-63
2022/04/13 13:36:19;;;;;;;712.23;658.27;;;;;;;;;;5012792;28;20511;-63
2022/04/13 13:38:48;;;;;;;736.77;685.40;;;;;;;;;;5012522;28;20923;-63
2022/04/13 13:41:14;;;;;;;725.77;670.20;;;;;;;;;;5012186;28;20416;-63
2022/04/13 13:43:41;;;;;;;719.47;663.53;;;;;;;;;;5012359;28;20417;-63
2022/04/13 13:46:14;;;;;;;702.03;647.10;;;;;;;;;;5012521;28;20439;-63
2022/04/13 13:48:40;;;;;;;706.87;651.07;;;;;;;;;;5012159;28;20966;-63
2022/04/13 13:51:06;;;;;;;701.47;647.67;;;;;;;;;;5012130;28;20508;-63
2022/04/13 13:53:32;;;;;;;712.17;657.27;;;;;;;;;;5012529;28;20401;-62